sensor_id;sensor_type;location;lat;lon;timestamp;noise_LAeq;noise_LA_min;noise_LA_max;noise_LA01;noise_LA95
37163;Laerm;23057;48.554;14.454;2023-04-27T00:01:09;50.27;48.81;65.36;;
37163;Laerm;23057;48.554;14.454;2023-04-27T00:03:41;50.00;48.88;59.41;;
37163;Laerm;23057;48.554;14.454;2023-04-27T00:06:12;50.14;48.80;66.38;;
37163;Laerm;23057;48.554;14.454;2023-04-27T00:08:42;50.08;48.95;65.42;;
37163;Laerm;23057;48.554;14.454;2023-04-27T00:11:13;50.03;48.92;61.63;;
37163;Laerm;23057;48.554;14.454;2023-04-27T00:13:44;49.97;48.67;58.09;;
37163;Laerm;23057;48.554;14.454;2023-04-27T00:16:16;50.05;48.94;60.45;;
37163;Laerm;23057;48.554;14.454;2023-04-27T00:18:47;50.17;48.81;65.03;;
37163;Laerm;23057;48.554;14.454;2023-04-27T00:21:18;50.07;48.88;65.11;;
37163;Laerm;23057;48.554;14.454;2023-04-27T00:23:49;50.12;48.67;64.22;;
37163;Laerm;23057;48.554;14.454;2023-04-27T00:26:20;50.08;48.92;64.74;;
37163;Laerm;23057;48.554;14.454;2023-04-27T00:28:51;50.05;48.76;60.37;;
37163;Laerm;23057;48.554;14.454;2023-04-27T00:31:22;50.01;48.77;63.71;;
37163;Laerm;23057;48.554;14.454;2023-04-27T00:33:53;50.02;48.83;65.25;;
37163;Laerm;23057;48.554;14.454;2023-04-27T00:36:24;50.07;48.98;65.18;;
37163;Laerm;23057;48.554;14.454;2023-04-27T00:38:54;50.05;49.06;66.76;;
37163;Laerm;23057;48.554;14.454;2023-04-27T00:41:25;50.02;48.95;62.68;;
37163;Laerm;23057;48.554;14.454;2023-04-27T00:43:56;49.99;48.76;60.90;;
37163;Laerm;23057;48.554;14.454;2023-04-27T00:46:28;50.25;48.78;66.79;;
37163;Laerm;23057;48.554;14.454;2023-04-27T00:49:00;50.19;48.84;66.14;;
37163;Laerm;23057;48.554;14.454;2023-04-27T00:51:30;50.16;48.87;68.72;;
37163;Laerm;23057;48.554;14.454;2023-04-27T00:54:01;50.11;48.99;68.76;;
37163;Laerm;23057;48.554;14.454;2023-04-27T00:56:32;49.96;48.94;51.16;;
37163;Laerm;23057;48.554;14.454;2023-04-27T00:59:03;50.05;48.94;65.12;;
37163;Laerm;23057;48.554;14.454;2023-04-27T01:01:34;50.03;48.80;66.69;;
37163;Laerm;23057;48.554;14.454;2023-04-27T01:04:04;50.03;48.69;68.80;;
37163;Laerm;23057;48.554;14.454;2023-04-27T01:06:35;50.27;48.91;67.41;;
37163;Laerm;23057;48.554;14.454;2023-04-27T01:09:06;50.13;48.92;64.76;;
37163;Laerm;23057;48.554;14.454;2023-04-27T01:11:37;49.98;48.98;60.92;;
37163;Laerm;23057;48.554;14.454;2023-04-27T01:14:08;50.22;48.88;65.52;;
37163;Laerm;23057;48.554;14.454;2023-04-27T01:16:39;50.01;48.95;64.20;;
37163;Laerm;23057;48.554;14.454;2023-04-27T01:19:10;50.12;48.91;65.04;;
37163;Laerm;23057;48.554;14.454;2023-04-27T01:21:41;50.08;48.64;63.69;;
37163;Laerm;23057;48.554;14.454;2023-04-27T01:24:11;50.09;48.99;64.96;;
37163;Laerm;23057;48.554;14.454;2023-04-27T01:26:42;50.00;48.66;63.59;;
37163;Laerm;23057;48.554;14.454;2023-04-27T01:29:13;50.31;48.71;65.59;;
37163;Laerm;23057;48.554;14.454;2023-04-27T01:31:44;50.04;48.95;64.76;;
37163;Laerm;23057;48.554;14.454;2023-04-27T01:34:14;50.47;48.76;67.27;;
37163;Laerm;23057;48.554;14.454;2023-04-27T01:36:45;50.16;48.94;65.40;;
37163;Laerm;23057;48.554;14.454;2023-04-27T01:39:16;50.03;48.91;62.70;;
37163;Laerm;23057;48.554;14.454;2023-04-27T01:41:47;50.13;48.90;65.97;;
37163;Laerm;23057;48.554;14.454;2023-04-27T01:44:18;50.06;48.87;66.34;;
37163;Laerm;23057;48.554;14.454;2023-04-27T01:46:50;50.25;49.07;65.17;;
37163;Laerm;23057;48.554;14.454;2023-04-27T01:49:21;50.05;48.74;62.43;;
37163;Laerm;23057;48.554;14.454;2023-04-27T01:51:52;50.05;48.95;64.45;;
37163;Laerm;23057;48.554;14.454;2023-04-27T01:54:22;50.24;48.95;68.79;;
37163;Laerm;23057;48.554;14.454;2023-04-27T01:56:53;50.04;48.91;64.59;;
37163;Laerm;23057;48.554;14.454;2023-04-27T01:59:25;50.27;48.94;65.11;;
37163;Laerm;23057;48.554;14.454;2023-04-27T02:01:55;50.39;48.90;65.40;;
37163;Laerm;23057;48.554;14.454;2023-04-27T02:04:26;50.39;48.74;65.42;;
37163;Laerm;23057;48.554;14.454;2023-04-27T02:06:57;50.11;48.83;64.83;;
37163;Laerm;23057;48.554;14.454;2023-04-27T02:09:28;49.98;48.81;56.29;;
37163;Laerm;23057;48.554;14.454;2023-04-27T02:11:58;50.12;48.81;64.36;;
37163;Laerm;23057;48.554;14.454;2023-04-27T02:14:29;50.12;49.00;66.00;;
37163;Laerm;23057;48.554;14.454;2023-04-27T02:17:00;50.14;48.95;64.62;;
37163;Laerm;23057;48.554;14.454;2023-04-27T02:19:30;50.10;48.92;64.68;;
37163;Laerm;23057;48.554;14.454;2023-04-27T02:22:02;50.22;48.74;67.33;;
37163;Laerm;23057;48.554;14.454;2023-04-27T02:24:34;49.98;48.60;55.04;;
37163;Laerm;23057;48.554;14.454;2023-04-27T02:27:06;50.04;48.87;64.77;;
37163;Laerm;23057;48.554;14.454;2023-04-27T02:29:36;50.01;48.71;60.49;;
37163;Laerm;23057;48.554;14.454;2023-04-27T02:32:08;50.07;48.90;64.22;;
37163;Laerm;23057;48.554;14.454;2023-04-27T02:34:39;50.17;48.76;65.35;;
37163;Laerm;23057;48.554;14.454;2023-04-27T02:37:09;50.30;48.77;65.74;;
37163;Laerm;23057;48.554;14.454;2023-04-27T02:39:40;49.97;48.83;56.38;;
37163;Laerm;23057;48.554;14.454;2023-04-27T02:42:11;49.97;48.94;61.01;;
37163;Laerm;23057;48.554;14.454;2023-04-27T02:44:42;49.97;48.96;59.49;;
37163;Laerm;23057;48.554;14.454;2023-04-27T02:47:12;50.09;48.80;65.91;;
37163;Laerm;23057;48.554;14.454;2023-04-27T02:49:43;49.97;48.78;59.59;;
37163;Laerm;23057;48.554;14.454;2023-04-27T02:52:14;50.09;48.87;64.47;;
37163;Laerm;23057;48.554;14.454;2023-04-27T02:54:45;49.97;48.91;59.56;;
37163;Laerm;23057;48.554;14.454;2023-04-27T02:57:16;49.97;48.85;55.14;;
37163;Laerm;23057;48.554;14.454;2023-04-27T02:59:46;50.01;48.83;64.03;;
37163;Laerm;23057;48.554;14.454;2023-04-27T03:02:17;50.04;48.60;63.35;;
37163;Laerm;23057;48.554;14.454;2023-04-27T03:04:52;50.09;48.63;65.59;;
37163;Laerm;23057;48.554;14.454;2023-04-27T03:07:24;50.05;48.99;66.12;;
37163;Laerm;23057;48.554;14.454;2023-04-27T03:09:55;49.95;48.92;57.73;;
37163;Laerm;23057;48.554;14.454;2023-04-27T03:12:25;50.16;48.92;65.61;;
37163;Laerm;23057;48.554;14.454;2023-04-27T03:14:56;50.19;48.73;65.38;;
37163;Laerm;23057;48.554;14.454;2023-04-27T03:17:27;50.18;48.91;67.87;;
37163;Laerm;23057;48.554;14.454;2023-04-27T03:19:58;50.00;48.85;62.97;;
37163;Laerm;23057;48.554;14.454;2023-04-27T03:22:28;50.03;48.91;63.93;;
37163;Laerm;23057;48.554;14.454;2023-04-27T03:25:00;50.14;48.94;66.32;;
37163;Laerm;23057;48.554;14.454;2023-04-27T03:27:30;50.09;48.94;63.61;;
37163;Laerm;23057;48.554;14.454;2023-04-27T03:30:02;49.98;48.87;59.73;;
37163;Laerm;23057;48.554;14.454;2023-04-27T03:32:33;50.02;48.70;62.49;;
37163;Laerm;23057;48.554;14.454;2023-04-27T03:35:05;50.08;48.90;67.49;;
37163;Laerm;23057;48.554;14.454;2023-04-27T03:37:36;49.96;48.91;56.71;;
37163;Laerm;23057;48.554;14.454;2023-04-27T03:40:07;50.13;48.88;66.09;;
37163;Laerm;23057;48.554;14.454;2023-04-27T03:42:38;49.98;48.87;60.27;;
37163;Laerm;23057;48.554;14.454;2023-04-27T03:45:09;50.21;48.84;63.65;;
37163;Laerm;23057;48.554;14.454;2023-04-27T03:47:41;50.00;48.91;64.43;;
37163;Laerm;23057;48.554;14.454;2023-04-27T03:50:12;50.00;48.77;61.55;;
37163;Laerm;23057;48.554;14.454;2023-04-27T03:52:43;50.24;48.87;67.06;;
37163;Laerm;23057;48.554;14.454;2023-04-27T03:55:13;50.07;48.85;66.23;;
37163;Laerm;23057;48.554;14.454;2023-04-27T03:57:44;49.97;48.92;60.62;;
37163;Laerm;23057;48.554;14.454;2023-04-27T04:00:16;49.96;48.77;51.86;;
37163;Laerm;23057;48.554;14.454;2023-04-27T04:02:47;50.25;48.88;65.44;;
37163;Laerm;23057;48.554;14.454;2023-04-27T04:05:18;50.14;48.84;65.66;;
37163;Laerm;23057;48.554;14.454;2023-04-27T04:07:49;50.34;48.91;66.58;;
37163;Laerm;23057;48.554;14.454;2023-04-27T04:10:20;50.09;48.90;65.51;;
37163;Laerm;23057;48.554;14.454;2023-04-27T04:12:51;50.10;49.00;64.17;;
37163;Laerm;23057;48.554;14.454;2023-04-27T04:15:22;50.00;48.90;61.03;;
37163;Laerm;23057;48.554;14.454;2023-04-27T04:17:53;50.25;48.95;67.41;;
37163;Laerm;23057;48.554;14.454;2023-04-27T04:20:24;50.02;48.81;64.88;;
37163;Laerm;23057;48.554;14.454;2023-04-27T04:22:54;50.06;48.84;66.89;;
37163;Laerm;23057;48.554;14.454;2023-04-27T04:25:25;50.16;49.00;65.55;;
37163;Laerm;23057;48.554;14.454;2023-04-27T04:27:57;50.18;48.70;65.77;;
37163;Laerm;23057;48.554;14.454;2023-04-27T04:30:28;50.27;48.77;67.23;;
37163;Laerm;23057;48.554;14.454;2023-04-27T04:32:59;50.31;48.91;66.76;;
37163;Laerm;23057;48.554;14.454;2023-04-27T04:35:30;50.27;48.81;65.61;;
37163;Laerm;23057;48.554;14.454;2023-04-27T04:38:02;50.06;48.85;65.16;;
37163;Laerm;23057;48.554;14.454;2023-04-27T04:40:33;50.07;48.67;66.88;;
37163;Laerm;23057;48.554;14.454;2023-04-27T04:43:04;50.00;48.71;64.03;;
37163;Laerm;23057;48.554;14.454;2023-04-27T04:45:35;50.27;48.90;66.85;;
37163;Laerm;23057;48.554;14.454;2023-04-27T04:48:06;50.29;48.83;69.81;;
37163;Laerm;23057;48.554;14.454;2023-04-27T04:50:38;50.06;48.90;66.37;;
37163;Laerm;23057;48.554;14.454;2023-04-27T04:53:09;50.12;48.84;71.47;;
37163;Laerm;23057;48.554;14.454;2023-04-27T04:55:40;50.04;48.74;64.34;;
37163;Laerm;23057;48.554;14.454;2023-04-27T04:58:10;50.07;48.88;67.12;;
37163;Laerm;23057;48.554;14.454;2023-04-27T05:00:41;50.40;48.96;70.61;;
37163;Laerm;23057;48.554;14.454;2023-04-27T05:03:12;50.08;48.77;70.60;;
37163;Laerm;23057;48.554;14.454;2023-04-27T05:05:43;50.18;48.90;71.40;;
37163;Laerm;23057;48.554;14.454;2023-04-27T05:08:13;50.07;48.84;65.19;;
37163;Laerm;23057;48.554;14.454;2023-04-27T05:10:53;49.99;48.77;61.71;;
37163;Laerm;23057;48.554;14.454;2023-04-27T05:13:23;50.24;48.92;70.31;;
37163;Laerm;23057;48.554;14.454;2023-04-27T05:15:54;50.09;48.80;65.10;;
37163;Laerm;23057;48.554;14.454;2023-04-27T05:18:25;50.24;48.96;67.76;;
37163;Laerm;23057;48.554;14.454;2023-04-27T05:20:56;50.80;48.85;72.07;;
37163;Laerm;23057;48.554;14.454;2023-04-27T05:23:26;50.07;48.85;65.56;;
37163;Laerm;23057;48.554;14.454;2023-04-27T05:25:57;50.05;48.87;66.18;;
37163;Laerm;23057;48.554;14.454;2023-04-27T05:28:28;50.26;48.85;69.43;;
37163;Laerm;23057;48.554;14.454;2023-04-27T05:30:58;50.30;48.81;72.12;;
37163;Laerm;23057;48.554;14.454;2023-04-27T05:33:29;50.21;48.87;67.69;;
37163;Laerm;23057;48.554;14.454;2023-04-27T05:36:00;50.37;49.00;68.68;;
37163;Laerm;23057;48.554;14.454;2023-04-27T05:38:31;50.12;48.78;67.14;;
37163;Laerm;23057;48.554;14.454;2023-04-27T05:41:03;50.40;48.67;69.25;;
37163;Laerm;23057;48.554;14.454;2023-04-27T05:43:33;50.18;48.83;69.20;;
37163;Laerm;23057;48.554;14.454;2023-04-27T05:46:04;50.18;48.81;68.16;;
37163;Laerm;23057;48.554;14.454;2023-04-27T05:48:35;50.43;48.87;68.85;;
37163;Laerm;23057;48.554;14.454;2023-04-27T05:51:06;50.33;48.91;71.48;;
37163;Laerm;23057;48.554;14.454;2023-04-27T05:53:37;50.51;48.87;73.77;;
37163;Laerm;23057;48.554;14.454;2023-04-27T05:56:08;50.05;48.88;67.02;;
37163;Laerm;23057;48.554;14.454;2023-04-27T05:58:41;50.09;48.84;64.02;;
37163;Laerm;23057;48.554;14.454;2023-04-27T06:01:11;50.26;48.84;67.26;;
37163;Laerm;23057;48.554;14.454;2023-04-27T06:03:42;50.41;48.95;73.87;;
37163;Laerm;23057;48.554;14.454;2023-04-27T06:06:13;50.29;48.81;70.54;;
37163;Laerm;23057;48.554;14.454;2023-04-27T06:08:44;50.25;48.77;66.42;;
37163;Laerm;23057;48.554;14.454;2023-04-27T06:11:15;50.70;48.87;74.93;;
37163;Laerm;23057;48.554;14.454;2023-04-27T06:13:45;50.40;48.77;74.10;;
37163;Laerm;23057;48.554;14.454;2023-04-27T06:16:17;50.85;48.76;74.88;;
37163;Laerm;23057;48.554;14.454;2023-04-27T06:18:49;50.27;48.58;73.65;;
37163;Laerm;23057;48.554;14.454;2023-04-27T06:21:20;51.05;48.70;75.14;;
37163;Laerm;23057;48.554;14.454;2023-04-27T06:23:50;50.80;48.77;75.18;;
37163;Laerm;23057;48.554;14.454;2023-04-27T06:26:21;50.52;48.90;74.85;;
37163;Laerm;23057;48.554;14.454;2023-04-27T06:28:53;50.52;48.83;75.08;;
37163;Laerm;23057;48.554;14.454;2023-04-27T06:31:25;50.70;48.90;75.23;;
37163;Laerm;23057;48.554;14.454;2023-04-27T06:33:56;50.68;48.74;75.16;;
37163;Laerm;23057;48.554;14.454;2023-04-27T06:36:27;50.88;48.95;74.46;;
37163;Laerm;23057;48.554;14.454;2023-04-27T06:38:58;51.65;48.81;74.86;;
37163;Laerm;23057;48.554;14.454;2023-04-27T06:41:29;51.95;48.81;74.46;;
37163;Laerm;23057;48.554;14.454;2023-04-27T06:43:59;52.56;48.95;73.90;;
37163;Laerm;23057;48.554;14.454;2023-04-27T06:46:30;53.32;48.61;75.01;;
37163;Laerm;23057;48.554;14.454;2023-04-27T06:49:01;54.20;49.02;69.16;;
37163;Laerm;23057;48.554;14.454;2023-04-27T06:51:32;62.94;51.51;71.25;;
37163;Laerm;23057;48.554;14.454;2023-04-27T06:54:03;61.29;50.32;68.11;;
37163;Laerm;23057;48.554;14.454;2023-04-27T06:56:34;59.41;50.35;66.73;;
37163;Laerm;23057;48.554;14.454;2023-04-27T06:59:04;57.98;50.10;68.17;;
37163;Laerm;23057;48.554;14.454;2023-04-27T07:01:36;55.98;49.51;67.51;;
37163;Laerm;23057;48.554;14.454;2023-04-27T07:04:07;55.33;49.25;70.91;;
37163;Laerm;23057;48.554;14.454;2023-04-27T07:06:37;53.72;49.49;71.89;;
37163;Laerm;23057;48.554;14.454;2023-04-27T07:09:08;54.57;49.34;72.41;;
37163;Laerm;23057;48.554;14.454;2023-04-27T07:11:39;55.93;49.30;71.88;;
37163;Laerm;23057;48.554;14.454;2023-04-27T07:14:09;57.57;49.58;73.32;;
37163;Laerm;23057;48.554;14.454;2023-04-27T07:16:41;56.38;49.66;72.74;;
37163;Laerm;23057;48.554;14.454;2023-04-27T07:19:13;52.54;49.06;67.28;;
37163;Laerm;23057;48.554;14.454;2023-04-27T07:21:44;64.10;49.34;83.56;;
37163;Laerm;23057;48.554;14.454;2023-04-27T07:24:15;50.62;49.23;55.85;;
37163;Laerm;23057;48.554;14.454;2023-04-27T07:26:45;50.72;49.11;63.48;;
37163;Laerm;23057;48.554;14.454;2023-04-27T07:29:17;50.46;48.92;63.60;;
37163;Laerm;23057;48.554;14.454;2023-04-27T07:31:48;50.26;48.83;65.56;;
37163;Laerm;23057;48.554;14.454;2023-04-27T07:34:18;50.02;48.84;65.71;;
37163;Laerm;23057;48.554;14.454;2023-04-27T07:36:50;50.08;48.91;64.64;;
37163;Laerm;23057;48.554;14.454;2023-04-27T07:39:23;50.26;48.81;68.34;;
37163;Laerm;23057;48.554;14.454;2023-04-27T07:41:54;50.16;48.92;66.45;;
37163;Laerm;23057;48.554;14.454;2023-04-27T07:44:25;50.20;48.87;66.10;;
37163;Laerm;23057;48.554;14.454;2023-04-27T07:46:56;50.22;48.91;65.53;;
37163;Laerm;23057;48.554;14.454;2023-04-27T07:49:27;50.15;48.85;66.24;;
37163;Laerm;23057;48.554;14.454;2023-04-27T07:51:58;50.20;48.91;66.19;;
37163;Laerm;23057;48.554;14.454;2023-04-27T07:54:29;50.18;48.90;66.24;;
37163;Laerm;23057;48.554;14.454;2023-04-27T07:57:00;50.32;48.94;67.49;;
37163;Laerm;23057;48.554;14.454;2023-04-27T07:59:33;50.38;48.71;65.64;;
37163;Laerm;23057;48.554;14.454;2023-04-27T08:02:04;50.22;48.98;67.11;;
37163;Laerm;23057;48.554;14.454;2023-04-27T08:04:35;50.26;48.88;65.62;;
37163;Laerm;23057;48.554;14.454;2023-04-27T08:07:06;50.40;48.77;66.24;;
37163;Laerm;23057;48.554;14.454;2023-04-27T08:09:36;50.32;48.74;68.53;;
37163;Laerm;23057;48.554;14.454;2023-04-27T08:12:07;50.46;48.82;66.35;;
37163;Laerm;23057;48.554;14.454;2023-04-27T08:14:38;50.56;48.87;66.31;;
37163;Laerm;23057;48.554;14.454;2023-04-27T08:17:08;50.50;48.84;66.87;;
37163;Laerm;23057;48.554;14.454;2023-04-27T08:19:40;50.62;49.08;67.05;;
37163;Laerm;23057;48.554;14.454;2023-04-27T08:22:10;51.39;49.00;73.60;;
37163;Laerm;23057;48.554;14.454;2023-04-27T08:24:41;51.84;49.56;62.86;;
37163;Laerm;23057;48.554;14.454;2023-04-27T08:27:12;51.77;49.70;63.03;;
37163;Laerm;23057;48.554;14.454;2023-04-27T08:29:46;51.77;49.57;62.93;;
37163;Laerm;23057;48.554;14.454;2023-04-27T08:32:18;51.68;49.84;63.28;;
37163;Laerm;23057;48.554;14.454;2023-04-27T08:34:48;51.75;49.57;63.05;;
37163;Laerm;23057;48.554;14.454;2023-04-27T08:37:19;51.91;50.04;63.61;;
37163;Laerm;23057;48.554;14.454;2023-04-27T08:39:50;51.78;49.45;64.80;;
37163;Laerm;23057;48.554;14.454;2023-04-27T08:42:21;51.79;49.90;62.97;;
37163;Laerm;23057;48.554;14.454;2023-04-27T08:44:51;54.69;49.14;73.09;;
37163;Laerm;23057;48.554;14.454;2023-04-27T08:47:22;54.23;49.85;69.61;;
37163;Laerm;23057;48.554;14.454;2023-04-27T08:49:53;54.84;49.88;68.58;;
37163;Laerm;23057;48.554;14.454;2023-04-27T08:52:24;65.10;51.41;69.73;;
37163;Laerm;23057;48.554;14.454;2023-04-27T08:54:54;64.44;54.16;69.20;;
37163;Laerm;23057;48.554;14.454;2023-04-27T08:57:25;65.31;51.52;69.89;;
37163;Laerm;23057;48.554;14.454;2023-04-27T08:59:57;66.25;54.31;69.81;;
37163;Laerm;23057;48.554;14.454;2023-04-27T09:02:31;62.34;50.30;75.08;;
37163;Laerm;23057;48.554;14.454;2023-04-27T09:05:03;54.85;50.96;68.11;;
37163;Laerm;23057;48.554;14.454;2023-04-27T09:07:34;54.91;51.31;69.42;;
37163;Laerm;23057;48.554;14.454;2023-04-27T09:10:05;55.81;50.92;69.80;;
37163;Laerm;23057;48.554;14.454;2023-04-27T09:12:36;58.28;50.95;69.63;;
37163;Laerm;23057;48.554;14.454;2023-04-27T09:15:07;55.55;52.10;70.24;;
37163;Laerm;23057;48.554;14.454;2023-04-27T09:17:38;55.46;50.52;77.65;;
37163;Laerm;23057;48.554;14.454;2023-04-27T09:20:09;55.12;51.80;68.90;;
37163;Laerm;23057;48.554;14.454;2023-04-27T09:22:49;55.06;49.78;68.85;;
37163;Laerm;23057;48.554;14.454;2023-04-27T09:25:29;51.06;49.43;64.93;;
37163;Laerm;23057;48.554;14.454;2023-04-27T09:28:01;50.67;49.28;65.08;;
37163;Laerm;23057;48.554;14.454;2023-04-27T09:30:31;55.21;49.08;72.05;;
37163;Laerm;23057;48.554;14.454;2023-04-27T09:33:02;57.86;50.44;64.39;;
37163;Laerm;23057;48.554;14.454;2023-04-27T09:35:33;54.44;50.69;63.62;;
37163;Laerm;23057;48.554;14.454;2023-04-27T09:38:04;52.25;50.63;56.12;;
37163;Laerm;23057;48.554;14.454;2023-04-27T09:40:35;52.44;50.78;56.41;;
37163;Laerm;23057;48.554;14.454;2023-04-27T09:43:06;74.13;50.92;78.85;;
37163;Laerm;23057;48.554;14.454;2023-04-27T09:45:37;75.76;50.93;78.91;;
37163;Laerm;23057;48.554;14.454;2023-04-27T09:48:10;75.13;62.22;78.48;;
37163;Laerm;23057;48.554;14.454;2023-04-27T09:50:44;77.11;50.16;80.07;;
37163;Laerm;23057;48.554;14.454;2023-04-27T09:53:24;68.98;48.77;78.32;;
37163;Laerm;23057;48.554;14.454;2023-04-27T09:59:20;57.27;49.43;67.07;;
37163;Laerm;23057;48.554;14.454;2023-04-27T10:01:59;61.99;48.95;72.71;;
37163;Laerm;23057;48.554;14.454;2023-04-27T10:05:01;63.64;49.43;72.10;;
37163;Laerm;23057;48.554;14.454;2023-04-27T10:07:39;63.41;49.14;72.64;;
37163;Laerm;23057;48.554;14.454;2023-04-27T10:10:19;60.83;49.15;71.39;;
37163;Laerm;23057;48.554;14.454;2023-04-27T10:13:00;59.50;49.13;71.87;;
37163;Laerm;23057;48.554;14.454;2023-04-27T10:15:39;59.35;48.82;71.05;;
37163;Laerm;23057;48.554;14.454;2023-04-27T10:18:09;58.90;49.14;69.81;;
37163;Laerm;23057;48.554;14.454;2023-04-27T10:20:41;58.37;48.98;69.42;;
37163;Laerm;23057;48.554;14.454;2023-04-27T10:23:25;58.72;48.91;70.31;;
37163;Laerm;23057;48.554;14.454;2023-04-27T10:26:06;58.63;48.81;70.43;;
37163;Laerm;23057;48.554;14.454;2023-04-27T10:28:37;58.12;48.85;69.22;;
37163;Laerm;23057;48.554;14.454;2023-04-27T10:31:09;57.85;49.19;69.16;;
37163;Laerm;23057;48.554;14.454;2023-04-27T10:33:43;57.43;49.19;69.10;;
37163;Laerm;23057;48.554;14.454;2023-04-27T10:36:14;57.74;48.95;68.58;;
37163;Laerm;23057;48.554;14.454;2023-04-27T10:38:55;57.09;48.94;68.15;;
37163;Laerm;23057;48.554;14.454;2023-04-27T10:41:33;58.23;49.18;69.65;;
37163;Laerm;23057;48.554;14.454;2023-04-27T10:44:30;57.55;48.69;69.06;;
37163;Laerm;23057;48.554;14.454;2023-04-27T10:47:13;58.55;48.70;69.29;;
37163;Laerm;23057;48.554;14.454;2023-04-27T10:49:44;58.92;49.02;69.93;;
37163;Laerm;23057;48.554;14.454;2023-04-27T10:52:15;59.00;48.95;69.65;;
37163;Laerm;23057;48.554;14.454;2023-04-27T10:54:46;58.68;48.74;69.49;;
37163;Laerm;23057;48.554;14.454;2023-04-27T10:57:17;58.29;48.90;69.64;;
37163;Laerm;23057;48.554;14.454;2023-04-27T10:59:51;58.45;48.90;70.53;;
37163;Laerm;23057;48.554;14.454;2023-04-27T11:02:27;58.49;48.92;69.32;;
37163;Laerm;23057;48.554;14.454;2023-04-27T11:04:58;58.08;48.92;69.95;;
37163;Laerm;23057;48.554;14.454;2023-04-27T11:07:29;58.32;49.10;68.97;;
37163;Laerm;23057;48.554;14.454;2023-04-27T11:10:00;57.65;49.02;68.76;;
37163;Laerm;23057;48.554;14.454;2023-04-27T11:12:31;56.75;48.87;68.76;;
37163;Laerm;23057;48.554;14.454;2023-04-27T11:15:02;56.48;49.18;67.49;;
37163;Laerm;23057;48.554;14.454;2023-04-27T11:17:33;55.42;49.20;68.63;;
37163;Laerm;23057;48.554;14.454;2023-04-27T11:20:05;56.22;48.96;68.12;;
37163;Laerm;23057;48.554;14.454;2023-04-27T11:22:45;56.40;48.81;67.29;;
37163;Laerm;23057;48.554;14.454;2023-04-27T11:25:16;56.33;48.92;68.03;;
37163;Laerm;23057;48.554;14.454;2023-04-27T11:27:47;56.19;48.58;67.01;;
37163;Laerm;23057;48.554;14.454;2023-04-27T11:30:22;56.43;48.98;67.58;;
37163;Laerm;23057;48.554;14.454;2023-04-27T11:32:53;56.78;48.78;67.73;;
37163;Laerm;23057;48.554;14.454;2023-04-27T11:35:33;57.59;48.80;68.21;;
37163;Laerm;23057;48.554;14.454;2023-04-27T11:38:04;57.75;48.95;68.62;;
37163;Laerm;23057;48.554;14.454;2023-04-27T11:40:35;57.46;49.21;70.67;;
37163;Laerm;23057;48.554;14.454;2023-04-27T11:43:13;57.33;48.80;69.05;;
37163;Laerm;23057;48.554;14.454;2023-04-27T11:45:44;57.11;48.98;68.30;;
37163;Laerm;23057;48.554;14.454;2023-04-27T11:48:15;56.78;48.85;68.27;;
37163;Laerm;23057;48.554;14.454;2023-04-27T11:50:46;55.19;48.77;67.53;;
37163;Laerm;23057;48.554;14.454;2023-04-27T11:53:36;55.45;48.54;66.58;;
37163;Laerm;23057;48.554;14.454;2023-04-27T11:56:09;55.74;49.11;66.81;;
37163;Laerm;23057;48.554;14.454;2023-04-27T11:58:40;55.49;48.98;66.50;;
37163;Laerm;23057;48.554;14.454;2023-04-27T12:01:11;55.78;48.40;68.28;;
37163;Laerm;23057;48.554;14.454;2023-04-27T12:03:42;55.36;48.91;66.87;;
37163;Laerm;23057;48.554;14.454;2023-04-27T12:06:13;56.03;48.98;66.74;;
37163;Laerm;23057;48.554;14.454;2023-04-27T12:08:43;56.14;49.11;67.76;;
37163;Laerm;23057;48.554;14.454;2023-04-27T12:11:14;55.51;48.85;67.61;;
37163;Laerm;23057;48.554;14.454;2023-04-27T12:13:45;55.92;49.06;67.79;;
37163;Laerm;23057;48.554;14.454;2023-04-27T12:16:16;56.17;49.30;68.06;;
37163;Laerm;23057;48.554;14.454;2023-04-27T12:18:49;55.93;48.90;67.34;;
37163;Laerm;23057;48.554;14.454;2023-04-27T12:21:20;56.57;49.08;68.29;;
37163;Laerm;23057;48.554;14.454;2023-04-27T12:23:51;56.36;49.07;68.04;;
37163;Laerm;23057;48.554;14.454;2023-04-27T12:26:22;56.04;49.04;67.65;;
37163;Laerm;23057;48.554;14.454;2023-04-27T12:28:53;55.93;48.77;68.65;;
37163;Laerm;23057;48.554;14.454;2023-04-27T12:31:23;55.91;49.02;68.53;;
37163;Laerm;23057;48.554;14.454;2023-04-27T12:33:55;56.27;49.02;68.73;;
37163;Laerm;23057;48.554;14.454;2023-04-27T12:36:26;56.54;48.88;68.10;;
37163;Laerm;23057;48.554;14.454;2023-04-27T12:39:10;57.34;48.79;69.88;;
37163;Laerm;23057;48.554;14.454;2023-04-27T12:41:44;56.50;49.39;70.67;;
37163;Laerm;23057;48.554;14.454;2023-04-27T12:44:17;56.09;49.03;70.81;;
37163;Laerm;23057;48.554;14.454;2023-04-27T12:46:48;55.17;48.90;69.87;;
37163;Laerm;23057;48.554;14.454;2023-04-27T12:49:20;55.64;49.16;71.42;;
37163;Laerm;23057;48.554;14.454;2023-04-27T12:51:51;56.04;49.06;68.78;;
37163;Laerm;23057;48.554;14.454;2023-04-27T12:54:23;55.82;49.14;70.14;;
37163;Laerm;23057;48.554;14.454;2023-04-27T12:56:54;55.97;48.91;69.28;;
37163;Laerm;23057;48.554;14.454;2023-04-27T12:59:24;55.76;48.85;70.55;;
37163;Laerm;23057;48.554;14.454;2023-04-27T13:01:55;57.51;49.00;70.43;;
37163;Laerm;23057;48.554;14.454;2023-04-27T13:04:28;57.40;49.10;69.85;;
37163;Laerm;23057;48.554;14.454;2023-04-27T13:06:59;57.36;48.88;69.39;;
37163;Laerm;23057;48.554;14.454;2023-04-27T13:09:31;53.60;49.24;71.29;;
37163;Laerm;23057;48.554;14.454;2023-04-27T13:12:02;51.91;49.15;69.66;;
37163;Laerm;23057;48.554;14.454;2023-04-27T13:14:33;51.72;48.80;68.54;;
37163;Laerm;23057;48.554;14.454;2023-04-27T13:17:04;51.80;49.02;70.43;;
37163;Laerm;23057;48.554;14.454;2023-04-27T13:19:34;51.81;49.06;62.66;;
37163;Laerm;23057;48.554;14.454;2023-04-27T13:22:05;52.02;49.07;69.69;;
37163;Laerm;23057;48.554;14.454;2023-04-27T13:24:39;51.90;49.02;68.47;;
37163;Laerm;23057;48.554;14.454;2023-04-27T13:27:11;51.75;48.91;68.38;;
37163;Laerm;23057;48.554;14.454;2023-04-27T13:29:42;51.74;48.90;63.75;;
37163;Laerm;23057;48.554;14.454;2023-04-27T13:32:13;54.09;49.06;67.43;;
37163;Laerm;23057;48.554;14.454;2023-04-27T13:34:43;55.62;49.08;68.22;;
37163;Laerm;23057;48.554;14.454;2023-04-27T13:37:14;56.16;49.14;67.96;;
37163;Laerm;23057;48.554;14.454;2023-04-27T13:39:45;55.64;49.03;67.74;;
37163;Laerm;23057;48.554;14.454;2023-04-27T13:42:16;55.80;48.80;67.66;;
37163;Laerm;23057;48.554;14.454;2023-04-27T13:44:47;55.90;48.90;67.94;;
37163;Laerm;23057;48.554;14.454;2023-04-27T13:47:18;56.09;49.00;67.64;;
37163;Laerm;23057;48.554;14.454;2023-04-27T13:49:49;56.10;49.06;67.33;;
37163;Laerm;23057;48.554;14.454;2023-04-27T13:52:20;55.96;48.99;67.80;;
37163;Laerm;23057;48.554;14.454;2023-04-27T13:54:51;56.00;48.90;67.48;;
37163;Laerm;23057;48.554;14.454;2023-04-27T13:57:22;51.65;48.52;69.63;;
37163;Laerm;23057;48.554;14.454;2023-04-27T13:59:52;51.56;49.03;70.51;;